sensor_id;sensor_type;location;lat;lon;timestamp;temperature;humidity
58582;DHT22;44361;51.476;5.700;2023-02-15T00:01:52;1.60;99.90
58582;DHT22;44361;51.476;5.700;2023-02-15T00:04:21;1.60;99.90
58582;DHT22;44361;51.476;5.700;2023-02-15T00:06:48;1.70;99.90
58582;DHT22;44361;51.476;5.700;2023-02-15T00:09:14;1.60;99.90
58582;DHT22;44361;51.476;5.700;2023-02-15T00:11:39;1.50;99.90
58582;DHT22;44361;51.476;5.700;2023-02-15T00:14:06;1.60;99.90
58582;DHT22;44361;51.476;5.700;2023-02-15T00:16:32;1.60;99.90
58582;DHT22;44361;51.476;5.700;2023-02-15T00:18:58;1.60;99.90
58582;DHT22;44361;51.476;5.700;2023-02-15T00:21:30;1.50;99.90
58582;DHT22;44361;51.476;5.700;2023-02-15T00:24:01;1.50;99.90
58582;DHT22;44361;51.476;5.700;2023-02-15T00:26:27;1.50;99.90
58582;DHT22;44361;51.476;5.700;2023-02-15T00:28:53;1.40;99.90
58582;DHT22;44361;51.476;5.700;2023-02-15T00:31:20;1.40;99.90
58582;DHT22;44361;51.476;5.700;2023-02-15T00:33:45;1.40;99.90
58582;DHT22;44361;51.476;5.700;2023-02-15T00:36:11;1.40;99.90
58582;DHT22;44361;51.476;5.700;2023-02-15T00:38:37;1.40;99.90
58582;DHT22;44361;51.476;5.700;2023-02-15T00:41:04;1.40;99.90
58582;DHT22;44361;51.476;5.700;2023-02-15T00:43:31;1.30;99.90
58582;DHT22;44361;51.476;5.700;2023-02-15T00:45:57;1.30;99.90
58582;DHT22;44361;51.476;5.700;2023-02-15T00:48:23;1.20;99.90
58582;DHT22;44361;51.476;5.700;2023-02-15T00:50:57;1.20;99.90
58582;DHT22;44361;51.476;5.700;2023-02-15T00:53:24;1.20;99.90
58582;DHT22;44361;51.476;5.700;2023-02-15T00:55:49;1.10;99.90
58582;DHT22;44361;51.476;5.700;2023-02-15T00:58:15;1.20;99.90
58582;DHT22;44361;51.476;5.700;2023-02-15T01:00:43;1.20;99.90
58582;DHT22;44361;51.476;5.700;2023-02-15T01:03:09;1.10;99.90
58582;DHT22;44361;51.476;5.700;2023-02-15T01:05:35;1.20;99.90
58582;DHT22;44361;51.476;5.700;2023-02-15T01:08:00;1.20;99.90
58582;DHT22;44361;51.476;5.700;2023-02-15T01:10:26;1.10;99.90
58582;DHT22;44361;51.476;5.700;2023-02-15T01:12:52;1.10;99.90
58582;DHT22;44361;51.476;5.700;2023-02-15T01:15:18;1.10;99.90
58582;DHT22;44361;51.476;5.700;2023-02-15T01:17:44;1.00;99.90
58582;DHT22;44361;51.476;5.700;2023-02-15T01:20:15;1.00;99.90
58582;DHT22;44361;51.476;5.700;2023-02-15T01:22:40;0.90;99.90
58582;DHT22;44361;51.476;5.700;2023-02-15T01:25:06;1.00;99.90
58582;DHT22;44361;51.476;5.700;2023-02-15T01:27:31;0.90;99.90
58582;DHT22;44361;51.476;5.700;2023-02-15T01:29:57;0.90;99.90
58582;DHT22;44361;51.476;5.700;2023-02-15T01:32:23;0.90;99.90
58582;DHT22;44361;51.476;5.700;2023-02-15T01:34:48;0.90;99.90
58582;DHT22;44361;51.476;5.700;2023-02-15T01:37:14;0.90;99.90
58582;DHT22;44361;51.476;5.700;2023-02-15T01:39:39;0.80;99.90
58582;DHT22;44361;51.476;5.700;2023-02-15T01:42:05;0.80;99.90
58582;DHT22;44361;51.476;5.700;2023-02-15T01:44:53;0.80;99.90
58582;DHT22;44361;51.476;5.700;2023-02-15T01:47:37;0.70;99.90
58582;DHT22;44361;51.476;5.700;2023-02-15T01:50:14;0.70;99.90
58582;DHT22;44361;51.476;5.700;2023-02-15T01:52:58;0.70;99.90
58582;DHT22;44361;51.476;5.700;2023-02-15T01:55:27;0.70;99.90
58582;DHT22;44361;51.476;5.700;2023-02-15T01:57:54;0.70;99.90
58582;DHT22;44361;51.476;5.700;2023-02-15T02:00:20;0.70;99.90
58582;DHT22;44361;51.476;5.700;2023-02-15T02:02:49;0.60;99.90
58582;DHT22;44361;51.476;5.700;2023-02-15T02:05:16;0.60;99.90
58582;DHT22;44361;51.476;5.700;2023-02-15T02:07:44;0.60;99.90
58582;DHT22;44361;51.476;5.700;2023-02-15T02:10:14;0.60;99.90
58582;DHT22;44361;51.476;5.700;2023-02-15T02:12:42;0.60;99.90
58582;DHT22;44361;51.476;5.700;2023-02-15T02:15:09;0.50;99.90
58582;DHT22;44361;51.476;5.700;2023-02-15T02:35:01;0.40;99.90
58582;DHT22;44361;51.476;5.700;2023-02-15T02:37:44;0.40;99.90
58582;DHT22;44361;51.476;5.700;2023-02-15T02:40:40;0.40;99.90
58582;DHT22;44361;51.476;5.700;2023-02-15T02:43:20;0.40;99.90
58582;DHT22;44361;51.476;5.700;2023-02-15T02:46:20;0.40;99.90
58582;DHT22;44361;51.476;5.700;2023-02-15T02:48:45;0.40;99.90
58582;DHT22;44361;51.476;5.700;2023-02-15T02:51:10;0.40;99.90
58582;DHT22;44361;51.476;5.700;2023-02-15T02:53:36;0.40;99.90
58582;DHT22;44361;51.476;5.700;2023-02-15T02:56:27;0.40;99.90
58582;DHT22;44361;51.476;5.700;2023-02-15T02:59:05;0.30;99.90
58582;DHT22;44361;51.476;5.700;2023-02-15T03:01:36;0.30;99.90
58582;DHT22;44361;51.476;5.700;2023-02-15T03:04:13;0.20;99.90
58582;DHT22;44361;51.476;5.700;2023-02-15T03:06:54;0.20;99.90
58582;DHT22;44361;51.476;5.700;2023-02-15T03:09:31;0.20;99.90
58582;DHT22;44361;51.476;5.700;2023-02-15T03:12:18;0.20;99.90
58582;DHT22;44361;51.476;5.700;2023-02-15T03:14:48;0.20;99.90
58582;DHT22;44361;51.476;5.700;2023-02-15T03:17:16;0.20;99.90
58582;DHT22;44361;51.476;5.700;2023-02-15T03:19:44;0.20;99.90
58582;DHT22;44361;51.476;5.700;2023-02-15T03:22:18;0.20;99.90
58582;DHT22;44361;51.476;5.700;2023-02-15T03:27:18;0.30;99.90
58582;DHT22;44361;51.476;5.700;2023-02-15T03:29:55;0.30;99.90
58582;DHT22;44361;51.476;5.700;2023-02-15T03:32:23;0.30;99.90
58582;DHT22;44361;51.476;5.700;2023-02-15T03:34:50;0.20;99.90
58582;DHT22;44361;51.476;5.700;2023-02-15T03:39:57;0.20;99.90
58582;DHT22;44361;51.476;5.700;2023-02-15T03:42:45;0.10;99.90
58582;DHT22;44361;51.476;5.700;2023-02-15T03:45:17;0.10;99.90
58582;DHT22;44361;51.476;5.700;2023-02-15T03:47:50;0.20;99.90
58582;DHT22;44361;51.476;5.700;2023-02-15T03:50:20;0.20;99.90
58582;DHT22;44361;51.476;5.700;2023-02-15T03:53:09;0.10;99.90
58582;DHT22;44361;51.476;5.700;2023-02-15T03:55:35;0.10;99.90
58582;DHT22;44361;51.476;5.700;2023-02-15T03:58:01;0.10;99.90
58582;DHT22;44361;51.476;5.700;2023-02-15T04:01:00;0.10;99.90
58582;DHT22;44361;51.476;5.700;2023-02-15T04:04:06;0.00;99.90
58582;DHT22;44361;51.476;5.700;2023-02-15T04:06:33;0.00;99.90
58582;DHT22;44361;51.476;5.700;2023-02-15T04:08:58;-0.10;99.90
58582;DHT22;44361;51.476;5.700;2023-02-15T04:11:42;-0.10;99.90
58582;DHT22;44361;51.476;5.700;2023-02-15T04:14:08;0.10;99.90
58582;DHT22;44361;51.476;5.700;2023-02-15T04:16:52;0.20;99.90
58582;DHT22;44361;51.476;5.700;2023-02-15T04:19:17;0.10;99.90
58582;DHT22;44361;51.476;5.700;2023-02-15T04:22:01;0.10;99.90
58582;DHT22;44361;51.476;5.700;2023-02-15T04:24:45;0.10;99.90
58582;DHT22;44361;51.476;5.700;2023-02-15T04:27:29;0.10;99.90
58582;DHT22;44361;51.476;5.700;2023-02-15T04:29:55;0.10;99.90
58582;DHT22;44361;51.476;5.700;2023-02-15T04:32:20;0.20;99.90
58582;DHT22;44361;51.476;5.700;2023-02-15T04:34:46;0.10;99.90
58582;DHT22;44361;51.476;5.700;2023-02-15T04:37:11;0.10;99.90
58582;DHT22;44361;51.476;5.700;2023-02-15T04:39:37;0.10;99.90
58582;DHT22;44361;51.476;5.700;2023-02-15T04:42:02;0.00;99.90
58582;DHT22;44361;51.476;5.700;2023-02-15T04:44:28;0.00;99.90
58582;DHT22;44361;51.476;5.700;2023-02-15T04:46:53;0.00;99.90
58582;DHT22;44361;51.476;5.700;2023-02-15T04:49:20;0.00;99.90
58582;DHT22;44361;51.476;5.700;2023-02-15T04:51:45;0.00;99.90
58582;DHT22;44361;51.476;5.700;2023-02-15T04:54:11;-0.10;99.90
58582;DHT22;44361;51.476;5.700;2023-02-15T04:56:36;-0.10;99.90
58582;DHT22;44361;51.476;5.700;2023-02-15T04:59:03;-0.20;99.90
58582;DHT22;44361;51.476;5.700;2023-02-15T05:01:28;-0.20;99.90
58582;DHT22;44361;51.476;5.700;2023-02-15T05:03:54;-0.20;99.90
58582;DHT22;44361;51.476;5.700;2023-02-15T05:06:19;-0.20;99.90
58582;DHT22;44361;51.476;5.700;2023-02-15T05:08:45;-0.20;99.90
58582;DHT22;44361;51.476;5.700;2023-02-15T05:11:11;-0.20;99.90
58582;DHT22;44361;51.476;5.700;2023-02-15T05:13:36;-0.20;99.90
58582;DHT22;44361;51.476;5.700;2023-02-15T05:16:02;-0.20;99.90
58582;DHT22;44361;51.476;5.700;2023-02-15T05:18:27;-0.20;99.90
58582;DHT22;44361;51.476;5.700;2023-02-15T05:20:53;-0.30;99.90
58582;DHT22;44361;51.476;5.700;2023-02-15T05:23:18;-0.30;99.90
58582;DHT22;44361;51.476;5.700;2023-02-15T05:25:51;-0.30;99.90
58582;DHT22;44361;51.476;5.700;2023-02-15T05:28:36;-0.20;99.90
58582;DHT22;44361;51.476;5.700;2023-02-15T05:31:11;-0.20;99.90
58582;DHT22;44361;51.476;5.700;2023-02-15T05:33:37;-0.10;99.90
58582;DHT22;44361;51.476;5.700;2023-02-15T05:36:03;-0.10;99.90
58582;DHT22;44361;51.476;5.700;2023-02-15T05:38:29;-0.10;99.90
58582;DHT22;44361;51.476;5.700;2023-02-15T05:40:55;-0.10;99.90
58582;DHT22;44361;51.476;5.700;2023-02-15T05:43:21;-0.10;99.90
58582;DHT22;44361;51.476;5.700;2023-02-15T05:45:49;-0.20;99.90
58582;DHT22;44361;51.476;5.700;2023-02-15T05:48:15;-0.20;99.90
58582;DHT22;44361;51.476;5.700;2023-02-15T05:50:41;-0.20;99.90
58582;DHT22;44361;51.476;5.700;2023-02-15T05:53:06;-0.20;99.90
58582;DHT22;44361;51.476;5.700;2023-02-15T05:55:32;-0.20;99.90
58582;DHT22;44361;51.476;5.700;2023-02-15T05:57:57;-0.20;99.90
58582;DHT22;44361;51.476;5.700;2023-02-15T06:00:24;-0.20;99.90
58582;DHT22;44361;51.476;5.700;2023-02-15T06:02:50;-0.20;99.90
58582;DHT22;44361;51.476;5.700;2023-02-15T06:05:16;-0.20;99.90
58582;DHT22;44361;51.476;5.700;2023-02-15T06:07:45;-0.30;99.90
58582;DHT22;44361;51.476;5.700;2023-02-15T06:10:11;-0.30;99.90
58582;DHT22;44361;51.476;5.700;2023-02-15T06:12:36;-0.20;99.90
58582;DHT22;44361;51.476;5.700;2023-02-15T06:15:02;-0.20;99.90
58582;DHT22;44361;51.476;5.700;2023-02-15T06:17:28;-0.20;99.90
58582;DHT22;44361;51.476;5.700;2023-02-15T06:19:53;-0.10;99.90
58582;DHT22;44361;51.476;5.700;2023-02-15T06:22:19;-0.10;99.90
58582;DHT22;44361;51.476;5.700;2023-02-15T06:24:45;-0.20;99.90
58582;DHT22;44361;51.476;5.700;2023-02-15T06:27:11;-0.10;99.90
58582;DHT22;44361;51.476;5.700;2023-02-15T06:29:37;-0.20;99.90
58582;DHT22;44361;51.476;5.700;2023-02-15T06:32:02;-0.20;99.90
58582;DHT22;44361;51.476;5.700;2023-02-15T06:34:28;-0.30;99.90
58582;DHT22;44361;51.476;5.700;2023-02-15T06:36:53;-0.30;99.90
58582;DHT22;44361;51.476;5.700;2023-02-15T06:39:19;-0.40;99.90
58582;DHT22;44361;51.476;5.700;2023-02-15T06:41:44;-0.50;99.90
58582;DHT22;44361;51.476;5.700;2023-02-15T06:44:10;-0.50;99.90
58582;DHT22;44361;51.476;5.700;2023-02-15T06:46:35;-0.50;99.90
58582;DHT22;44361;51.476;5.700;2023-02-15T06:49:01;-0.50;99.90
58582;DHT22;44361;51.476;5.700;2023-02-15T06:51:26;-0.50;99.90
58582;DHT22;44361;51.476;5.700;2023-02-15T06:53:52;-0.50;99.90
58582;DHT22;44361;51.476;5.700;2023-02-15T06:56:17;-0.50;99.90
58582;DHT22;44361;51.476;5.700;2023-02-15T06:58:43;-0.50;99.90
58582;DHT22;44361;51.476;5.700;2023-02-15T07:01:11;-0.40;99.90
58582;DHT22;44361;51.476;5.700;2023-02-15T07:03:37;-0.40;99.90
58582;DHT22;44361;51.476;5.700;2023-02-15T07:06:03;-0.30;99.90
58582;DHT22;44361;51.476;5.700;2023-02-15T07:08:31;-0.30;99.90
58582;DHT22;44361;51.476;5.700;2023-02-15T07:10:57;-0.20;99.90
58582;DHT22;44361;51.476;5.700;2023-02-15T07:13:42;-0.20;99.90
58582;DHT22;44361;51.476;5.700;2023-02-15T07:16:08;-0.10;99.90
58582;DHT22;44361;51.476;5.700;2023-02-15T07:18:34;0.00;99.90
58582;DHT22;44361;51.476;5.700;2023-02-15T07:20:59;0.10;99.90
58582;DHT22;44361;51.476;5.700;2023-02-15T07:23:25;0.10;99.90
58582;DHT22;44361;51.476;5.700;2023-02-15T07:25:57;0.10;99.90
58582;DHT22;44361;51.476;5.700;2023-02-15T07:28:22;0.10;99.90
58582;DHT22;44361;51.476;5.700;2023-02-15T07:30:48;0.20;99.90
58582;DHT22;44361;51.476;5.700;2023-02-15T07:33:13;0.20;99.90
58582;DHT22;44361;51.476;5.700;2023-02-15T07:35:53;0.30;99.90
58582;DHT22;44361;51.476;5.700;2023-02-15T07:38:20;0.30;99.90
58582;DHT22;44361;51.476;5.700;2023-02-15T07:40:46;0.30;99.90
58582;DHT22;44361;51.476;5.700;2023-02-15T07:43:12;0.40;99.90
58582;DHT22;44361;51.476;5.700;2023-02-15T07:45:38;0.40;99.90
58582;DHT22;44361;51.476;5.700;2023-02-15T07:48:04;0.50;99.90
58582;DHT22;44361;51.476;5.700;2023-02-15T07:50:31;0.50;99.90
58582;DHT22;44361;51.476;5.700;2023-02-15T07:52:57;0.60;99.90
58582;DHT22;44361;51.476;5.700;2023-02-15T07:55:22;0.70;99.90
58582;DHT22;44361;51.476;5.700;2023-02-15T07:57:49;0.80;99.90
58582;DHT22;44361;51.476;5.700;2023-02-15T08:00:16;0.80;99.90
58582;DHT22;44361;51.476;5.700;2023-02-15T08:02:47;0.90;99.90
58582;DHT22;44361;51.476;5.700;2023-02-15T08:05:13;1.00;99.90
58582;DHT22;44361;51.476;5.700;2023-02-15T08:07:39;1.00;99.90
58582;DHT22;44361;51.476;5.700;2023-02-15T08:10:05;1.10;99.90
58582;DHT22;44361;51.476;5.700;2023-02-15T08:12:30;1.20;99.90
58582;DHT22;44361;51.476;5.700;2023-02-15T08:14:56;1.30;99.90
58582;DHT22;44361;51.476;5.700;2023-02-15T08:17:22;1.40;99.90
58582;DHT22;44361;51.476;5.700;2023-02-15T08:19:48;1.50;99.90
58582;DHT22;44361;51.476;5.700;2023-02-15T08:22:14;1.60;99.90
58582;DHT22;44361;51.476;5.700;2023-02-15T08:24:40;1.70;99.90
58582;DHT22;44361;51.476;5.700;2023-02-15T08:27:08;1.80;99.90
58582;DHT22;44361;51.476;5.700;2023-02-15T08:29:35;1.90;99.90
58582;DHT22;44361;51.476;5.700;2023-02-15T08:32:12;1.90;99.90
58582;DHT22;44361;51.476;5.700;2023-02-15T08:34:39;2.00;99.90
58582;DHT22;44361;51.476;5.700;2023-02-15T08:37:06;2.10;99.90
58582;DHT22;44361;51.476;5.700;2023-02-15T08:39:31;2.10;99.90
58582;DHT22;44361;51.476;5.700;2023-02-15T08:41:57;2.30;99.90
58582;DHT22;44361;51.476;5.700;2023-02-15T08:44:24;2.40;99.90
58582;DHT22;44361;51.476;5.700;2023-02-15T08:46:50;2.50;99.90
58582;DHT22;44361;51.476;5.700;2023-02-15T08:49:17;2.60;99.90
58582;DHT22;44361;51.476;5.700;2023-02-15T08:51:43;2.60;99.90
58582;DHT22;44361;51.476;5.700;2023-02-15T08:54:12;2.80;99.90
58582;DHT22;44361;51.476;5.700;2023-02-15T08:56:40;2.90;99.90
58582;DHT22;44361;51.476;5.700;2023-02-15T08:59:07;3.10;99.90
58582;DHT22;44361;51.476;5.700;2023-02-15T09:01:36;3.20;99.90
58582;DHT22;44361;51.476;5.700;2023-02-15T09:04:05;3.40;99.90
58582;DHT22;44361;51.476;5.700;2023-02-15T09:06:31;3.40;99.90
58582;DHT22;44361;51.476;5.700;2023-02-15T09:08:57;3.50;99.90
58582;DHT22;44361;51.476;5.700;2023-02-15T09:11:28;3.60;99.90
58582;DHT22;44361;51.476;5.700;2023-02-15T09:13:58;3.70;99.90
58582;DHT22;44361;51.476;5.700;2023-02-15T09:16:26;3.80;99.90
58582;DHT22;44361;51.476;5.700;2023-02-15T09:18:53;3.90;99.90
58582;DHT22;44361;51.476;5.700;2023-02-15T09:21:21;4.10;99.90
58582;DHT22;44361;51.476;5.700;2023-02-15T09:23:49;4.30;99.90
58582;DHT22;44361;51.476;5.700;2023-02-15T09:26:20;4.40;99.90
58582;DHT22;44361;51.476;5.700;2023-02-15T09:28:46;4.60;99.90
58582;DHT22;44361;51.476;5.700;2023-02-15T09:31:17;4.70;99.90
58582;DHT22;44361;51.476;5.700;2023-02-15T09:33:44;4.80;99.90
58582;DHT22;44361;51.476;5.700;2023-02-15T09:36:25;4.90;99.90
58582;DHT22;44361;51.476;5.700;2023-02-15T09:39:00;5.10;99.90
58582;DHT22;44361;51.476;5.700;2023-02-15T09:49:39;5.50;99.90
58582;DHT22;44361;51.476;5.700;2023-02-15T10:00:17;6.10;99.90
58582;DHT22;44361;51.476;5.700;2023-02-15T10:05:30;6.40;99.90
58582;DHT22;44361;51.476;5.700;2023-02-15T10:10:47;6.80;99.90
58582;DHT22;44361;51.476;5.700;2023-02-15T10:13:30;7.00;99.90
58582;DHT22;44361;51.476;5.700;2023-02-15T10:16:21;7.10;99.90
58582;DHT22;44361;51.476;5.700;2023-02-15T10:18:53;7.20;99.90
58582;DHT22;44361;51.476;5.700;2023-02-15T10:21:48;7.20;99.90
58582;DHT22;44361;51.476;5.700;2023-02-15T10:25:20;7.30;99.90
58582;DHT22;44361;51.476;5.700;2023-02-15T10:27:14;7.40;99.90
58582;DHT22;44361;51.476;5.700;2023-02-15T10:32:53;7.40;99.90
58582;DHT22;44361;51.476;5.700;2023-02-15T10:35:46;7.40;99.90
58582;DHT22;44361;51.476;5.700;2023-02-15T10:41:37;7.60;99.90
58582;DHT22;44361;51.476;5.700;2023-02-15T10:44:45;7.70;99.90
58582;DHT22;44361;51.476;5.700;2023-02-15T10:52:51;8.10;99.90
58582;DHT22;44361;51.476;5.700;2023-02-15T10:55:33;8.30;99.90
58582;DHT22;44361;51.476;5.700;2023-02-15T11:00:41;8.50;99.90
58582;DHT22;44361;51.476;5.700;2023-02-15T11:03:24;8.70;99.90
58582;DHT22;44361;51.476;5.700;2023-02-15T11:06:05;8.80;99.90
58582;DHT22;44361;51.476;5.700;2023-02-15T11:08:35;8.90;99.90
58582;DHT22;44361;51.476;5.700;2023-02-15T11:11:12;9.10;99.90
58582;DHT22;44361;51.476;5.700;2023-02-15T11:13:43;9.10;99.90
58582;DHT22;44361;51.476;5.700;2023-02-15T11:16:16;9.20;99.90
58582;DHT22;44361;51.476;5.700;2023-02-15T11:18:50;9.40;99.80
58582;DHT22;44361;51.476;5.700;2023-02-15T11:21:21;9.50;99.90
58582;DHT22;44361;51.476;5.700;2023-02-15T11:23:48;9.60;99.90
58582;DHT22;44361;51.476;5.700;2023-02-15T11:34:38;10.20;98.70
58582;DHT22;44361;51.476;5.700;2023-02-15T11:37:08;10.30;98.20
58582;DHT22;44361;51.476;5.700;2023-02-15T11:39:35;10.30;97.90
58582;DHT22;44361;51.476;5.700;2023-02-15T11:42:14;10.40;97.70
58582;DHT22;44361;51.476;5.700;2023-02-15T11:44:52;10.40;97.80
58582;DHT22;44361;51.476;5.700;2023-02-15T11:47:19;10.40;97.40
58582;DHT22;44361;51.476;5.700;2023-02-15T11:49:45;10.50;97.60
58582;DHT22;44361;51.476;5.700;2023-02-15T11:52:13;10.60;97.80
58582;DHT22;44361;51.476;5.700;2023-02-15T11:54:43;10.90;98.30
58582;DHT22;44361;51.476;5.700;2023-02-15T11:59:41;11.00;97.00
58582;DHT22;44361;51.476;5.700;2023-02-15T12:02:19;11.00;97.10
58582;DHT22;44361;51.476;5.700;2023-02-15T12:04:52;11.30;96.30
58582;DHT22;44361;51.476;5.700;2023-02-15T12:07:29;11.40;95.90
58582;DHT22;44361;51.476;5.700;2023-02-15T12:15:00;11.60;95.00
58582;DHT22;44361;51.476;5.700;2023-02-15T12:17:28;11.80;95.80
58582;DHT22;44361;51.476;5.700;2023-02-15T12:20:01;11.80;94.70
58582;DHT22;44361;51.476;5.700;2023-02-15T12:22:32;11.80;93.80
58582;DHT22;44361;51.476;5.700;2023-02-15T12:25:11;11.90;93.90
58582;DHT22;44361;51.476;5.700;2023-02-15T12:27:46;12.00;93.90
58582;DHT22;44361;51.476;5.700;2023-02-15T12:30:47;12.10;93.10
58582;DHT22;44361;51.476;5.700;2023-02-15T12:33:32;12.10;93.00
58582;DHT22;44361;51.476;5.700;2023-02-15T12:36:19;12.20;93.40
58582;DHT22;44361;51.476;5.700;2023-02-15T12:39:21;12.40;92.30
58582;DHT22;44361;51.476;5.700;2023-02-15T12:44:29;12.20;91.10
58582;DHT22;44361;51.476;5.700;2023-02-15T12:49:41;12.40;91.40
58582;DHT22;44361;51.476;5.700;2023-02-15T12:52:24;12.40;90.30
58582;DHT22;44361;51.476;5.700;2023-02-15T12:54:51;12.60;90.60
58582;DHT22;44361;51.476;5.700;2023-02-15T12:57:33;12.70;90.20
58582;DHT22;44361;51.476;5.700;2023-02-15T13:00:04;12.70;89.40
58582;DHT22;44361;51.476;5.700;2023-02-15T13:02:43;12.70;88.40
58582;DHT22;44361;51.476;5.700;2023-02-15T13:07:38;12.90;88.70
58582;DHT22;44361;51.476;5.700;2023-02-15T13:10:39;13.00;89.40
58582;DHT22;44361;51.476;5.700;2023-02-15T13:13:18;13.10;88.60
58582;DHT22;44361;51.476;5.700;2023-02-15T13:15:49;13.10;89.00
58582;DHT22;44361;51.476;5.700;2023-02-15T13:18:32;13.30;88.90
58582;DHT22;44361;51.476;5.700;2023-02-15T13:21:10;13.30;88.90
58582;DHT22;44361;51.476;5.700;2023-02-15T13:23:37;13.40;88.50
58582;DHT22;44361;51.476;5.700;2023-02-15T13:26:09;13.30;88.20
58582;DHT22;44361;51.476;5.700;2023-02-15T13:28:44;13.30;87.40
58582;DHT22;44361;51.476;5.700;2023-02-15T13:31:18;13.30;88.40
58582;DHT22;44361;51.476;5.700;2023-02-15T13:33:51;13.30;87.90
58582;DHT22;44361;51.476;5.700;2023-02-15T13:36:35;13.30;87.30
58582;DHT22;44361;51.476;5.700;2023-02-15T13:42:20;13.30;86.50
58582;DHT22;44361;51.476;5.700;2023-02-15T13:48:02;13.30;85.50
58582;DHT22;44361;51.476;5.700;2023-02-15T14:01:43;14.00;85.70
58582;DHT22;44361;51.476;5.700;2023-02-15T14:06:59;14.20;82.80
58582;DHT22;44361;51.476;5.700;2023-02-15T14:09:48;14.20;81.60
58582;DHT22;44361;51.476;5.700;2023-02-15T14:18:39;14.10;79.00
58582;DHT22;44361;51.476;5.700;2023-02-15T14:21:30;14.00;78.40
58582;DHT22;44361;51.476;5.700;2023-02-15T14:32:42;13.60;78.70
58582;DHT22;44361;51.476;5.700;2023-02-15T14:35:14;13.60;78.70
58582;DHT22;44361;51.476;5.700;2023-02-15T14:40:44;13.50;78.80
58582;DHT22;44361;51.476;5.700;2023-02-15T14:49:28;13.40;80.10
58582;DHT22;44361;51.476;5.700;2023-02-15T14:52:01;13.40;79.90
58582;DHT22;44361;51.476;5.700;2023-02-15T14:59:57;13.50;79.90
58582;DHT22;44361;51.476;5.700;2023-02-15T15:02:27;13.40;79.80
58582;DHT22;44361;51.476;5.700;2023-02-15T15:05:24;13.20;79.80
58582;DHT22;44361;51.476;5.700;2023-02-15T15:07:56;13.10;79.40
58582;DHT22;44361;51.476;5.700;2023-02-15T15:12:50;13.10;79.80
58582;DHT22;44361;51.476;5.700;2023-02-15T15:18:07;13.10;80.10
58582;DHT22;44361;51.476;5.700;2023-02-15T15:20:42;13.10;79.60
58582;DHT22;44361;51.476;5.700;2023-02-15T15:25:49;12.80;80.10
58582;DHT22;44361;51.476;5.700;2023-02-15T15:33:54;12.50;81.50
58582;DHT22;44361;51.476;5.700;2023-02-15T15:42:04;12.20;83.60
58582;DHT22;44361;51.476;5.700;2023-02-15T15:45:19;12.10;83.90
58582;DHT22;44361;51.476;5.700;2023-02-15T15:50:18;11.80;84.90
58582;DHT22;44361;51.476;5.700;2023-02-15T15:52:50;11.80;85.00
58582;DHT22;44361;51.476;5.700;2023-02-15T15:55:22;11.70;85.20
58582;DHT22;44361;51.476;5.700;2023-02-15T15:57:59;11.60;85.90
58582;DHT22;44361;51.476;5.700;2023-02-15T16:00:34;11.50;86.20
58582;DHT22;44361;51.476;5.700;2023-02-15T16:03:00;11.40;86.80
58582;DHT22;44361;51.476;5.700;2023-02-15T16:05:26;11.40;87.30
58582;DHT22;44361;51.476;5.700;2023-02-15T16:07:52;11.30;87.60
58582;DHT22;44361;51.476;5.700;2023-02-15T16:10:26;11.20;87.80
58582;DHT22;44361;51.476;5.700;2023-02-15T16:12:52;11.20;88.40
58582;DHT22;44361;51.476;5.700;2023-02-15T16:15:34;11.10;88.90
58582;DHT22;44361;51.476;5.700;2023-02-15T16:18:01;11.10;88.90
58582;DHT22;44361;51.476;5.700;2023-02-15T16:20:36;11.00;89.10
58582;DHT22;44361;51.476;5.700;2023-02-15T16:23:16;10.90;89.80
58582;DHT22;44361;51.476;5.700;2023-02-15T16:28:46;10.80;90.20
58582;DHT22;44361;51.476;5.700;2023-02-15T16:31:14;10.70;90.50
58582;DHT22;44361;51.476;5.700;2023-02-15T16:33:41;10.60;90.50
58582;DHT22;44361;51.476;5.700;2023-02-15T16:36:27;10.50;90.60
58582;DHT22;44361;51.476;5.700;2023-02-15T16:41:29;10.30;91.20
58582;DHT22;44361;51.476;5.700;2023-02-15T16:43:57;10.20;91.30
58582;DHT22;44361;51.476;5.700;2023-02-15T16:46:33;10.20;91.50
58582;DHT22;44361;51.476;5.700;2023-02-15T16:49:04;10.10;91.80
58582;DHT22;44361;51.476;5.700;2023-02-15T16:51:33;10.10;91.90
58582;DHT22;44361;51.476;5.700;2023-02-15T16:54:07;10.00;92.10
58582;DHT22;44361;51.476;5.700;2023-02-15T16:56:33;9.90;92.30
58582;DHT22;44361;51.476;5.700;2023-02-15T16:59:00;9.80;92.50
58582;DHT22;44361;51.476;5.700;2023-02-15T17:01:31;9.70;92.60
58582;DHT22;44361;51.476;5.700;2023-02-15T17:04:13;9.70;92.90
58582;DHT22;44361;51.476;5.700;2023-02-15T17:06:39;9.60;92.90
58582;DHT22;44361;51.476;5.700;2023-02-15T17:09:11;9.60;93.10
58582;DHT22;44361;51.476;5.700;2023-02-15T17:11:43;9.50;93.30
58582;DHT22;44361;51.476;5.700;2023-02-15T17:16:43;9.40;93.80
58582;DHT22;44361;51.476;5.700;2023-02-15T17:19:29;9.30;93.80
58582;DHT22;44361;51.476;5.700;2023-02-15T17:21:59;9.30;94.00
58582;DHT22;44361;51.476;5.700;2023-02-15T17:24:39;9.20;94.20
58582;DHT22;44361;51.476;5.700;2023-02-15T17:27:12;9.10;94.30
58582;DHT22;44361;51.476;5.700;2023-02-15T17:29:41;9.10;94.50
58582;DHT22;44361;51.476;5.700;2023-02-15T17:32:19;9.00;94.60
58582;DHT22;44361;51.476;5.700;2023-02-15T17:34:59;9.00;94.80
58582;DHT22;44361;51.476;5.700;2023-02-15T17:37:47;9.00;95.00
58582;DHT22;44361;51.476;5.700;2023-02-15T17:40:29;8.90;95.10
58582;DHT22;44361;51.476;5.700;2023-02-15T17:42:55;8.80;95.30
58582;DHT22;44361;51.476;5.700;2023-02-15T17:45:22;8.80;95.50
58582;DHT22;44361;51.476;5.700;2023-02-15T17:47:50;8.70;95.70
58582;DHT22;44361;51.476;5.700;2023-02-15T17:50:22;8.60;95.80
58582;DHT22;44361;51.476;5.700;2023-02-15T17:52:48;8.60;96.00
58582;DHT22;44361;51.476;5.700;2023-02-15T17:55:16;8.60;96.20
58582;DHT22;44361;51.476;5.700;2023-02-15T17:58:07;8.50;96.30
58582;DHT22;44361;51.476;5.700;2023-02-15T18:00:36;8.50;96.50
58582;DHT22;44361;51.476;5.700;2023-02-15T18:03:21;8.40;96.70
58582;DHT22;44361;51.476;5.700;2023-02-15T18:06:05;8.40;97.00
58582;DHT22;44361;51.476;5.700;2023-02-15T18:08:49;8.40;97.10
58582;DHT22;44361;51.476;5.700;2023-02-15T18:11:34;8.40;97.30
58582;DHT22;44361;51.476;5.700;2023-02-15T18:14:09;8.30;97.40
58582;DHT22;44361;51.476;5.700;2023-02-15T18:16:37;8.30;97.60
58582;DHT22;44361;51.476;5.700;2023-02-15T18:19:10;8.20;97.70
58582;DHT22;44361;51.476;5.700;2023-02-15T18:21:37;8.10;97.80
58582;DHT22;44361;51.476;5.700;2023-02-15T18:24:03;8.10;98.00
58582;DHT22;44361;51.476;5.700;2023-02-15T18:26:29;8.10;98.20
58582;DHT22;44361;51.476;5.700;2023-02-15T18:28:55;8.10;98.70
58582;DHT22;44361;51.476;5.700;2023-02-15T18:31:22;8.00;98.40
58582;DHT22;44361;51.476;5.700;2023-02-15T18:33:58;8.00;98.60
58582;DHT22;44361;51.476;5.700;2023-02-15T18:36:31;7.90;98.70
58582;DHT22;44361;51.476;5.700;2023-02-15T18:38:57;7.90;98.90
58582;DHT22;44361;51.476;5.700;2023-02-15T18:41:23;7.90;99.00
58582;DHT22;44361;51.476;5.700;2023-02-15T18:43:49;7.90;99.20
58582;DHT22;44361;51.476;5.700;2023-02-15T18:46:16;7.90;99.30
58582;DHT22;44361;51.476;5.700;2023-02-15T18:48:42;7.80;99.30